Time;durP1;ratioP1;P1;durP2;ratioP2;P2;SDS_P1;SDS_P2;PMS_P1;PMS_P2;Temp;Humidity;BMP_temperature;BMP_pressure;BME280_temperature;BME280_humidity;BME280_pressure;Samples;Min_cycle;Max_cycle;Signal;HPM_P1;HPM_P2
2023/07/09 00:00:15;;;;;;;13.50;12.90;;;23.00;99.90;;;;;;5053530;28;20440;-75
2023/07/09 00:02:42;;;;;;;13.37;12.77;;;23.10;99.90;;;;;;5051486;28;20448;-76
2023/07/09 00:05:13;;;;;;;13.90;13.30;;;23.00;99.90;;;;;;5053204;28;20488;-75
2023/07/09 00:07:40;;;;;;;14.17;13.40;;;22.90;99.90;;;;;;5053220;28;20480;-76
2023/07/09 00:10:16;;;;;;;14.53;13.73;;;22.90;99.90;;;;;;5053689;28;20471;-76
2023/07/09 00:12:44;;;;;;;15.77;14.77;;;22.80;99.90;;;;;;5053380;28;20737;-76
2023/07/09 00:15:12;;;;;;;14.27;13.50;;;22.80;99.90;;;;;;5053566;28;20664;-76
2023/07/09 00:17:39;;;;;;;13.37;12.67;;;22.80;99.90;;;;;;5053241;28;20807;-76
2023/07/09 00:20:13;;;;;;;12.83;12.33;;;22.70;99.90;;;;;;5053194;28;20563;-76
2023/07/09 00:22:40;;;;;;;13.43;12.90;;;22.70;99.90;;;;;;5052962;28;20867;-76
2023/07/09 00:25:13;;;;;;;13.77;13.07;;;22.70;99.90;;;;;;5052895;28;20490;-76
2023/07/09 00:27:44;;;;;;;12.67;12.17;;;22.70;99.90;;;;;;5053169;28;20555;-76
2023/07/09 00:30:16;;;;;;;14.00;13.30;;;22.70;99.90;;;;;;5052907;28;20483;-76
2023/07/09 00:32:44;;;;;;;13.40;12.60;;;22.60;99.90;;;;;;5052993;28;20455;-76
2023/07/09 00:35:12;;;;;;;12.70;12.20;;;22.50;99.90;;;;;;5052447;28;20533;-76
2023/07/09 00:37:39;;;;;;;13.33;12.83;;;22.50;99.90;;;;;;5052822;28;20457;-76
2023/07/09 00:40:10;;;;;;;13.57;12.97;;;22.50;99.90;;;;;;5052829;28;20456;-76
2023/07/09 00:42:37;;;;;;;13.10;12.50;;;22.40;99.90;;;;;;5052896;28;20448;-76
2023/07/09 00:45:20;;;;;;;12.10;11.60;;;22.40;99.90;;;;;;5052808;28;20487;-76
2023/07/09 00:47:53;;;;;;;13.70;13.00;;;22.40;99.90;;;;;;5052448;28;20482;-76
2023/07/09 00:50:33;;;;;;;12.77;12.07;;;22.40;99.90;;;;;;5052722;28;20452;-76
2023/07/09 00:53:07;;;;;;;13.50;12.80;;;22.30;99.90;;;;;;5052479;28;20455;-74
2023/07/09 00:55:37;;;;;;;14.00;13.30;;;22.30;99.90;;;;;;5052672;28;20727;-74
2023/07/09 00:58:13;;;;;;;13.70;13.10;;;22.20;99.90;;;;;;5063079;28;20487;-74
2023/07/09 01:00:47;;;;;;;15.30;14.50;;;22.20;99.90;;;;;;5063541;28;20447;-75
2023/07/09 01:03:27;;;;;;;12.33;11.83;;;22.10;99.90;;;;;;5064589;28;20448;-77
2023/07/09 01:05:55;;;;;;;12.70;12.20;;;22.10;99.90;;;;;;5060798;28;20484;-75
2023/07/09 01:08:22;;;;;;;13.27;12.67;;;22.10;99.90;;;;;;5053453;28;20570;-76
2023/07/09 01:10:48;;;;;;;14.00;13.40;;;22.10;99.90;;;;;;5052524;28;20972;-76
2023/07/09 01:13:18;;;;;;;13.20;12.50;;;22.00;99.90;;;;;;5052291;28;21056;-75
2023/07/09 01:15:47;;;;;;;12.70;11.90;;;22.00;99.90;;;;;;5052082;28;20531;-75
2023/07/09 01:18:14;;;;;;;13.77;13.07;;;21.90;99.90;;;;;;5051934;28;20452;-76
2023/07/09 01:20:41;;;;;;;12.40;11.80;;;21.90;99.90;;;;;;5051850;28;20454;-76
2023/07/09 01:23:10;;;;;;;12.93;12.43;;;21.90;99.90;;;;;;5051810;28;20949;-76
2023/07/09 01:25:51;;;;;;;13.80;12.90;;;21.90;99.90;;;;;;5051799;28;20836;-76
2023/07/09 01:28:17;;;;;;;12.43;11.83;;;21.80;99.90;;;;;;5052049;28;20455;-76
2023/07/09 01:30:44;;;;;;;14.37;13.73;;;21.80;99.90;;;;;;5051719;28;20467;-76
2023/07/09 01:33:11;;;;;;;13.13;12.37;;;21.80;99.90;;;;;;5051930;28;20452;-76
2023/07/09 01:35:42;;;;;;;12.30;11.70;;;21.80;99.90;;;;;;5051414;28;20483;-76
2023/07/09 01:38:10;;;;;;;12.23;11.73;;;21.80;99.90;;;;;;5051632;28;20487;-76
2023/07/09 01:40:38;;;;;;;12.93;12.37;;;21.80;99.90;;;;;;5051767;28;20455;-76
2023/07/09 01:43:06;;;;;;;14.33;13.63;;;21.70;99.90;;;;;;5051732;28;20460;-75
2023/07/09 01:45:34;;;;;;;13.57;12.87;;;21.70;99.90;;;;;;5050941;28;20507;-77
2023/07/09 01:48:02;;;;;;;12.47;11.87;;;21.60;99.90;;;;;;5051573;28;20447;-78
2023/07/09 01:50:29;;;;;;;13.17;12.20;;;21.50;99.90;;;;;;5051488;28;20905;-79
2023/07/09 01:52:57;;;;;;;14.43;13.83;;;21.50;99.90;;;;;;5051431;28;20456;-77
2023/07/09 01:55:25;;;;;;;13.07;12.47;;;21.50;99.90;;;;;;5051268;28;20448;-76
2023/07/09 01:57:52;;;;;;;14.07;13.20;;;21.50;99.90;;;;;;5051163;28;20440;-76
2023/07/09 02:00:19;;;;;;;13.23;12.43;;;21.50;99.90;;;;;;5051373;28;20460;-76
2023/07/09 02:02:47;;;;;;;13.67;12.83;;;21.50;99.90;;;;;;5051313;28;20444;-76
2023/07/09 02:05:16;;;;;;;11.33;10.90;;;21.50;99.90;;;;;;5051368;28;20495;-76
2023/07/09 02:07:43;;;;;;;12.23;11.73;;;21.50;99.90;;;;;;5050993;28;20499;-76
2023/07/09 02:10:10;;;;;;;12.40;11.70;;;21.50;99.90;;;;;;5051038;28;20455;-75
2023/07/09 02:12:39;;;;;;;12.00;11.53;;;21.40;99.90;;;;;;5051161;28;20817;-75
2023/07/09 02:15:07;;;;;;;14.60;13.70;;;21.40;99.90;;;;;;5051205;28;20496;-75
2023/07/09 02:17:33;;;;;;;13.90;13.20;;;21.30;99.90;;;;;;5051156;28;20448;-75
2023/07/09 02:20:00;;;;;;;14.23;13.63;;;21.20;99.90;;;;;;5050773;28;20459;-75
2023/07/09 02:22:29;;;;;;;12.73;12.13;;;21.80;99.90;;;;;;5050898;28;20815;-75
2023/07/09 02:24:55;;;;;;;14.33;13.43;;;21.10;99.90;;;;;;5050591;28;20956;-75
2023/07/09 02:27:22;;;;;;;13.40;12.60;;;21.10;99.90;;;;;;5050927;28;20463;-75
2023/07/09 02:29:50;;;;;;;13.40;12.80;;;21.00;99.90;;;;;;5050930;28;20447;-75
2023/07/09 02:32:20;;;;;;;13.37;12.60;;;21.00;99.90;;;;;;5050916;28;20455;-74
2023/07/09 02:34:48;;;;;;;11.73;11.13;;;21.10;99.90;;;;;;5050935;28;20448;-75
2023/07/09 02:37:17;;;;;;;13.10;12.30;;;21.00;99.90;;;;;;5050783;28;20474;-75
2023/07/09 02:39:44;;;;;;;11.47;11.00;;;21.00;99.90;;;;;;5050582;28;20484;-75
2023/07/09 02:42:11;;;;;;;12.97;12.27;;;21.00;99.90;;;;;;5050580;28;20448;-76
2023/07/09 02:44:39;;;;;;;13.30;12.70;;;21.00;99.90;;;;;;5050730;28;20858;-76
2023/07/09 02:47:08;;;;;;;12.73;12.07;;;21.00;99.90;;;;;;5050831;28;20541;-76
2023/07/09 02:49:35;;;;;;;13.33;12.63;;;21.00;99.90;;;;;;5050756;28;20463;-76
2023/07/09 02:52:02;;;;;;;12.23;11.73;;;21.00;99.90;;;;;;5050699;28;20459;-76
2023/07/09 02:54:28;;;;;;;13.07;12.47;;;21.00;99.90;;;;;;5050529;28;20448;-76
2023/07/09 02:56:55;;;;;;;13.83;13.10;;;21.00;99.90;;;;;;5051033;28;20466;-75
2023/07/09 02:59:22;;;;;;;12.97;12.37;;;20.90;99.90;;;;;;5054711;28;20456;-76
2023/07/09 03:01:49;;;;;;;13.80;13.10;;;20.90;99.90;;;;;;5054655;28;20459;-76
2023/07/09 03:04:20;;;;;;;12.50;12.00;;;20.90;99.90;;;;;;5054414;28;20452;-76
2023/07/09 03:06:47;;;;;;;12.03;11.33;;;20.90;99.90;;;;;;5054403;28;20496;-75
2023/07/09 03:09:14;;;;;;;13.03;12.33;;;20.80;99.90;;;;;;5054475;28;20462;-75
2023/07/09 03:11:41;;;;;;;13.33;12.73;;;20.70;99.90;;;;;;5054614;28;20454;-74
2023/07/09 03:14:09;;;;;;;13.33;12.73;;;20.60;99.90;;;;;;5054729;28;20454;-76
2023/07/09 03:16:36;;;;;;;15.17;14.47;;;20.60;99.90;;;;;;5054365;28;20467;-76
2023/07/09 03:19:04;;;;;;;14.63;13.97;;;20.60;99.90;;;;;;5054262;28;20463;-75
2023/07/09 03:21:33;;;;;;;14.67;13.97;;;20.60;99.90;;;;;;5054194;28;20506;-75
2023/07/09 03:24:00;;;;;;;12.77;12.27;;;20.60;99.90;;;;;;5054026;28;20459;-84
2023/07/09 03:26:27;;;;;;;14.03;12.70;;;20.50;99.90;;;;;;5054215;28;20487;-75
2023/07/09 03:28:55;;;;;;;12.90;12.40;;;20.50;99.90;;;;;;5054018;28;20522;-75
2023/07/09 03:31:22;;;;;;;14.40;13.70;;;20.50;99.90;;;;;;5054202;28;20448;-75
2023/07/09 03:33:49;;;;;;;14.30;13.50;;;20.40;99.90;;;;;;5054476;28;20455;-74
2023/07/09 03:36:18;;;;;;;13.50;12.80;;;20.40;99.90;;;;;;5053974;28;20463;-75
2023/07/09 03:38:47;;;;;;;14.40;13.70;;;20.30;99.90;;;;;;5053733;28;20483;-76
2023/07/09 03:41:13;;;;;;;15.70;14.60;;;20.30;99.90;;;;;;5052612;28;20470;-76
2023/07/09 03:43:40;;;;;;;15.80;14.90;;;20.30;99.90;;;;;;5053450;28;20470;-76
2023/07/09 03:46:07;;;;;;;12.70;12.10;;;20.30;99.90;;;;;;5053029;28;20487;-77
2023/07/09 03:48:33;;;;;;;14.40;13.20;;;20.30;99.90;;;;;;5053775;28;20456;-77
2023/07/09 03:51:00;;;;;;;15.60;14.90;;;20.30;99.90;;;;;;5053426;28;20794;-74
2023/07/09 03:53:27;;;;;;;14.70;13.90;;;20.40;99.90;;;;;;5053478;28;20451;-74
2023/07/09 03:55:58;;;;;;;14.30;13.70;;;20.40;99.90;;;;;;5053455;28;20444;-75
2023/07/09 03:58:25;;;;;;;13.50;12.70;;;20.40;99.90;;;;;;5052047;28;20483;-75
2023/07/09 04:00:52;;;;;;;14.57;13.87;;;20.40;99.90;;;;;;5052781;28;20460;-75
2023/07/09 04:03:18;;;;;;;13.83;13.27;;;20.30;99.90;;;;;;5053354;28;20458;-75
2023/07/09 04:05:45;;;;;;;13.50;12.70;;;20.30;99.90;;;;;;5053316;28;20491;-75
2023/07/09 04:08:12;;;;;;;13.10;12.50;;;20.30;99.90;;;;;;5052202;28;20582;-75
2023/07/09 04:10:38;;;;;;;12.90;12.30;;;20.30;99.90;;;;;;5052012;28;20448;-75
2023/07/09 04:13:06;;;;;;;12.57;11.97;;;20.30;99.90;;;;;;5052759;28;20459;-80
2023/07/09 04:15:34;;;;;;;14.83;14.07;;;20.40;99.90;;;;;;5052073;28;20451;-76
2023/07/09 04:18:00;;;;;;;13.50;12.70;;;20.40;99.90;;;;;;5063885;28;20443;-77
2023/07/09 04:20:27;;;;;;;15.23;14.30;;;20.40;99.90;;;;;;5073088;28;20452;-76
2023/07/09 04:22:54;;;;;;;14.03;12.80;;;20.40;99.90;;;;;;5059223;28;20495;-76
2023/07/09 04:25:21;;;;;;;13.77;13.17;;;20.40;99.90;;;;;;5065345;28;20442;-76
2023/07/09 04:27:49;;;;;;;14.20;13.60;;;20.40;99.90;;;;;;5061175;28;20484;-76
2023/07/09 04:30:17;;;;;;;15.17;14.30;;;20.40;99.90;;;;;;5054792;28;20459;-75
2023/07/09 04:32:44;;;;;;;13.83;13.13;;;20.70;99.90;;;;;;5052997;28;20452;-75
2023/07/09 04:35:12;;;;;;;15.33;14.43;;;20.90;99.90;;;;;;5052610;28;20472;-76
2023/07/09 04:37:39;;;;;;;14.23;13.47;;;21.20;99.90;;;;;;5052634;28;20598;-75
2023/07/09 04:40:10;;;;;;;12.37;11.87;;;21.50;99.90;;;;;;5052753;28;20452;-76
2023/07/09 04:42:37;;;;;;;14.33;13.10;;;21.70;99.90;;;;;;5052757;28;20456;-76
2023/07/09 04:45:05;;;;;;;13.90;13.00;;;21.80;99.90;;;;;;5052670;28;20926;-75
2023/07/09 04:47:33;;;;;;;13.23;12.53;;;22.10;99.90;;;;;;5052621;28;20484;-75
2023/07/09 04:49:59;;;;;;;14.43;13.50;;;22.20;99.90;;;;;;5052427;28;20463;-76
2023/07/09 04:52:26;;;;;;;12.47;11.93;;;22.50;99.90;;;;;;5052426;28;20451;-75
2023/07/09 04:54:53;;;;;;;13.33;12.73;;;22.60;99.90;;;;;;5052475;28;20467;-75
2023/07/09 04:57:20;;;;;;;14.83;14.03;;;22.90;99.90;;;;;;5052759;28;20544;-75
2023/07/09 04:59:47;;;;;;;13.43;12.63;;;23.00;99.90;;;;;;5052388;28;20451;-75
2023/07/09 05:02:14;;;;;;;12.70;12.10;;;23.10;99.90;;;;;;5043526;28;20503;-76
2023/07/09 05:04:42;;;;;;;13.73;13.03;;;23.20;99.90;;;;;;5052312;28;20452;-76
2023/07/09 05:07:08;;;;;;;13.43;12.83;;;23.40;99.90;;;;;;5051930;28;21008;-76
2023/07/09 05:09:35;;;;;;;14.13;13.43;;;23.60;99.90;;;;;;5052180;28;20454;-75
2023/07/09 05:12:02;;;;;;;14.63;13.73;;;23.70;99.90;;;;;;5052158;28;20456;-75
2023/07/09 05:14:29;;;;;;;12.67;12.07;;;23.80;99.90;;;;;;5052159;28;20942;-76
2023/07/09 05:16:56;;;;;;;13.77;13.10;;;23.90;99.90;;;;;;5051988;28;20471;-77
2023/07/09 05:19:23;;;;;;;14.83;13.50;;;23.90;99.90;;;;;;5051878;28;20459;-77
2023/07/09 05:21:51;;;;;;;14.53;13.70;;;24.00;99.90;;;;;;5051897;28;20464;-76
2023/07/09 05:24:17;;;;;;;13.80;12.80;;;24.10;99.90;;;;;;5051325;28;20463;-76
2023/07/09 05:26:44;;;;;;;13.47;12.87;;;24.30;99.90;;;;;;5051674;28;20484;-76
2023/07/09 05:29:11;;;;;;;12.30;11.70;;;24.40;99.90;;;;;;5051946;28;21034;-76
2023/07/09 05:31:37;;;;;;;13.30;12.70;;;24.60;99.90;;;;;;5052133;28;20452;-76
2023/07/09 05:34:04;;;;;;;13.03;12.30;;;24.70;99.90;;;;;;5051988;28;20470;-77
2023/07/09 05:36:31;;;;;;;13.23;12.53;;;25.00;99.90;;;;;;5051698;28;20471;-78
2023/07/09 05:38:59;;;;;;;15.07;14.37;;;25.30;99.90;;;;;;5051756;28;20451;-75
2023/07/09 05:41:26;;;;;;;15.60;14.70;;;25.60;99.90;;;;;;5051708;28;20451;-75
2023/07/09 05:43:53;;;;;;;16.27;15.53;;;25.80;99.90;;;;;;5049264;28;20826;-77
2023/07/09 05:46:22;;;;;;;14.07;13.37;;;26.00;99.60;;;;;;5052008;28;20989;-81
2023/07/09 05:48:49;;;;;;;13.70;13.00;;;26.10;99.20;;;;;;5044643;28;20448;-81
2023/07/09 05:51:16;;;;;;;13.53;12.93;;;26.10;98.80;;;;;;5049791;28;20471;-81
2023/07/09 05:53:42;;;;;;;13.87;13.07;;;26.10;99.10;;;;;;5046313;28;20550;-80
2023/07/09 05:56:10;;;;;;;12.93;12.37;;;26.30;99.10;;;;;;5046254;28;20452;-80
2023/07/09 05:58:38;;;;;;;13.20;12.60;;;26.60;98.00;;;;;;5048129;28;20453;-77
2023/07/09 06:01:05;;;;;;;13.40;12.80;;;26.90;97.60;;;;;;5045265;28;20535;-78
2023/07/09 06:03:33;;;;;;;12.50;11.90;;;26.70;97.40;;;;;;5048208;28;20444;-78
2023/07/09 06:06:00;;;;;;;14.77;14.00;;;26.80;97.30;;;;;;5044613;28;20460;-79
2023/07/09 06:08:27;;;;;;;12.93;12.30;;;26.80;96.90;;;;;;5048827;28;20487;-77
2023/07/09 06:10:55;;;;;;;12.77;11.93;;;26.80;97.20;;;;;;5043326;28;20456;-77
2023/07/09 06:13:24;;;;;;;14.20;13.53;;;27.00;96.80;;;;;;5047446;28;20944;-76
2023/07/09 06:15:52;;;;;;;14.20;13.10;;;27.30;96.30;;;;;;5049567;28;20870;-75
2023/07/09 06:18:20;;;;;;;14.27;13.50;;;27.50;95.60;;;;;;5051288;28;20537;-77
2023/07/09 06:20:48;;;;;;;15.10;14.10;;;27.90;95.20;;;;;;5051188;28;20452;-76
2023/07/09 06:23:16;;;;;;;13.90;13.20;;;28.20;94.10;;;;;;5051184;28;20452;-76
2023/07/09 06:25:47;;;;;;;14.70;13.90;;;28.30;93.60;;;;;;5051255;28;20917;-78
2023/07/09 06:28:15;;;;;;;13.30;12.70;;;28.40;93.40;;;;;;5051908;28;20480;-77
2023/07/09 06:30:43;;;;;;;13.53;12.70;;;28.60;93.00;;;;;;5051987;28;20652;-79
2023/07/09 06:33:11;;;;;;;13.60;12.93;;;28.80;92.30;;;;;;5050993;28;20455;-77
2023/07/09 06:35:37;;;;;;;14.43;13.13;;;29.00;91.80;;;;;;5050435;28;20559;-78
2023/07/09 06:38:04;;;;;;;14.90;14.10;;;29.00;91.50;;;;;;5052306;28;20448;-79
2023/07/09 06:40:31;;;;;;;14.17;13.47;;;29.30;91.10;;;;;;5053565;28;20470;-80
2023/07/09 06:42:58;;;;;;;14.80;13.90;;;29.30;90.80;;;;;;5051327;28;20841;-77
2023/07/09 06:45:25;;;;;;;14.00;13.17;;;29.50;90.70;;;;;;5051761;28;20494;-77
2023/07/09 06:47:53;;;;;;;12.60;12.10;;;29.70;90.20;;;;;;5050701;28;20491;-76
2023/07/09 06:50:20;;;;;;;13.10;12.33;;;29.70;89.50;;;;;;5051402;28;20509;-78
2023/07/09 06:52:47;;;;;;;13.43;12.80;;;29.90;89.20;;;;;;5050853;28;20465;-75
2023/07/09 06:55:14;;;;;;;13.37;12.67;;;30.30;88.70;;;;;;5050953;28;20464;-76
2023/07/09 06:57:41;;;;;;;14.33;13.63;;;30.50;86.70;;;;;;5050399;28;20547;-76
2023/07/09 07:00:09;;;;;;;14.23;13.60;;;30.50;86.20;;;;;;5053043;28;20464;-80
2023/07/09 07:02:35;;;;;;;13.80;13.00;;;30.40;87.00;;;;;;5056865;28;20448;-81
2023/07/09 07:05:04;;;;;;;13.83;12.90;;;30.10;87.40;;;;;;5051341;28;20822;-78
2023/07/09 07:07:31;;;;;;;13.50;12.80;;;29.90;88.20;;;;;;5050330;28;20492;-78
2023/07/09 07:09:57;;;;;;;12.60;12.00;;;29.90;87.80;;;;;;5051839;28;20756;-79
2023/07/09 07:12:26;;;;;;;12.80;12.30;;;30.20;87.10;;;;;;5048713;28;20834;-81
2023/07/09 07:14:53;;;;;;;12.97;12.37;;;30.60;85.90;;;;;;5054226;28;20464;-80
2023/07/09 07:17:20;;;;;;;13.63;13.00;;;30.60;85.20;;;;;;5052097;28;20443;-78
2023/07/09 07:19:47;;;;;;;15.87;14.87;;;30.80;84.70;;;;;;5051042;28;20527;-78
2023/07/09 07:22:15;;;;;;;14.23;13.27;;;30.60;84.50;;;;;;5050414;28;20463;-76
2023/07/09 07:24:42;;;;;;;14.27;13.57;;;31.20;83.60;;;;;;5050670;28;20733;-80
2023/07/09 07:27:09;;;;;;;15.53;14.83;;;31.50;82.30;;;;;;5050363;28;20523;-76
2023/07/09 07:29:36;;;;;;;14.63;14.03;;;31.80;81.50;;;;;;5050568;28;20452;-76
2023/07/09 07:32:03;;;;;;;14.30;13.70;;;32.30;79.50;;;;;;5050670;28;20459;-77
2023/07/09 07:34:30;;;;;;;13.90;13.20;;;32.20;78.90;;;;;;5050047;28;20452;-80
2023/07/09 07:36:56;;;;;;;14.37;13.47;;;32.20;78.70;;;;;;5051448;28;20448;-80
2023/07/09 07:39:25;;;;;;;14.67;14.07;;;32.30;78.50;;;;;;5051287;28;20456;-80
2023/07/09 07:41:51;;;;;;;15.13;14.10;;;32.40;78.20;;;;;;5051949;28;20456;-79
2023/07/09 07:44:18;;;;;;;13.87;13.17;;;32.40;77.70;;;;;;5052811;28;20458;-78
2023/07/09 07:46:45;;;;;;;15.40;14.70;;;32.70;76.80;;;;;;5055473;28;20468;-81
2023/07/09 07:49:12;;;;;;;16.20;15.20;;;33.00;75.30;;;;;;5055662;28;20549;-80
2023/07/09 07:51:39;;;;;;;16.07;15.00;;;33.00;75.60;;;;;;5057668;28;20455;-78
2023/07/09 07:54:08;;;;;;;14.40;13.70;;;33.50;73.80;;;;;;5055938;28;20456;-81
2023/07/09 07:56:36;;;;;;;15.40;14.60;;;33.50;73.30;;;;;;5055865;28;20460;-78
2023/07/09 07:59:03;;;;;;;15.70;15.00;;;33.90;71.80;;;;;;5058835;28;20459;-78
2023/07/09 08:01:30;;;;;;;15.10;14.43;;;34.40;70.30;;;;;;5053697;28;20452;-78
2023/07/09 08:03:57;;;;;;;14.00;13.40;;;34.80;68.10;;;;;;5054024;28;20563;-78
2023/07/09 08:06:24;;;;;;;14.00;13.40;;;35.20;67.20;;;;;;5057149;28;20448;-79
2023/07/09 08:08:51;;;;;;;15.87;15.17;;;35.50;65.40;;;;;;5057717;28;20498;-79
2023/07/09 08:11:17;;;;;;;14.63;14.10;;;35.90;64.50;;;;;;5056424;28;20448;-79
2023/07/09 08:13:46;;;;;;;16.63;15.53;;;36.10;62.80;;;;;;5053712;28;20453;-78
2023/07/09 08:16:31;;;;;;;16.07;15.17;;;36.50;62.40;;;;;;5055073;28;20456;-83
2023/07/09 08:18:57;;;;;;;15.37;14.70;;;36.90;59.80;;;;;;5056818;28;20864;-81
2023/07/09 08:21:24;;;;;;;15.00;14.33;;;36.80;60.30;;;;;;5053084;28;20452;-82
2023/07/09 08:23:51;;;;;;;15.47;14.77;;;37.20;58.40;;;;;;5054399;28;20965;-80
2023/07/09 08:26:17;;;;;;;16.60;15.90;;;37.40;57.80;;;;;;5051513;28;20451;-81
2023/07/09 08:28:45;;;;;;;15.53;14.83;;;38.00;56.40;;;;;;5052456;28;20709;-81
2023/07/09 08:31:12;;;;;;;14.50;14.00;;;38.90;55.20;;;;;;5057409;28;20460;-82
2023/07/09 08:33:39;;;;;;;15.20;14.60;;;39.90;52.50;;;;;;5053524;28;20452;-80
2023/07/09 08:36:06;;;;;;;18.40;17.47;;;40.20;51.00;;;;;;5054347;28;20476;-80
2023/07/09 08:38:33;;;;;;;17.70;16.70;;;40.90;48.50;;;;;;5052625;28;20953;-81
2023/07/09 08:41:02;;;;;;;16.80;16.00;;;40.90;47.50;;;;;;5052846;28;20574;-80
2023/07/09 08:43:40;;;;;;;15.00;14.40;;;40.50;47.40;;;;;;5053651;28;20462;-81
2023/07/09 08:46:19;;;;;;;15.60;15.00;;;40.20;46.40;;;;;;5053800;28;20447;-81
2023/07/09 08:48:48;;;;;;;15.60;14.80;;;39.50;47.00;;;;;;5053908;28;20479;-81
2023/07/09 08:51:28;;;;;;;15.67;14.97;;;39.30;48.20;;;;;;5056146;28;20452;-81
2023/07/09 08:53:58;;;;;;;15.43;14.83;;;39.60;46.60;;;;;;5054490;28;20797;-80
2023/07/09 08:56:26;;;;;;;16.57;15.87;;;40.30;45.50;;;;;;5052438;28;20954;-80
2023/07/09 08:58:57;;;;;;;17.27;16.57;;;40.00;45.50;;;;;;5056743;28;20436;-81
2023/07/09 09:01:30;;;;;;;15.70;15.10;;;40.10;45.50;;;;;;5055774;28;20451;-79
2023/07/09 09:04:01;;;;;;;17.20;16.50;;;40.50;44.20;;;;;;5053927;28;20459;-80
2023/07/09 09:06:30;;;;;;;14.87;14.27;;;39.80;43.60;;;;;;5054556;28;20452;-80
2023/07/09 09:09:04;;;;;;;15.87;14.93;;;39.20;45.50;;;;;;5052237;28;20712;-80
2023/07/09 09:11:45;;;;;;;15.03;14.23;;;39.30;45.80;;;;;;5052470;28;20444;-80
2023/07/09 09:14:24;;;;;;;15.33;14.40;;;39.40;45.10;;;;;;5052191;28;20481;-80
2023/07/09 09:16:54;;;;;;;15.57;14.87;;;39.20;45.40;;;;;;5055307;28;20460;-80
2023/07/09 09:19:24;;;;;;;15.67;15.07;;;39.10;46.20;;;;;;5053816;28;20475;-80
2023/07/09 09:21:58;;;;;;;18.00;17.03;;;39.90;44.90;;;;;;5055443;28;20495;-81
2023/07/09 09:24:31;;;;;;;15.47;14.87;;;40.30;44.30;;;;;;5055624;28;20447;-81
2023/07/09 09:26:59;;;;;;;15.80;15.10;;;40.30;44.60;;;;;;5054827;28;20541;-80
2023/07/09 09:29:27;;;;;;;16.37;15.17;;;40.10;44.60;;;;;;5048753;28;21006;-80
2023/07/09 09:31:57;;;;;;;15.47;14.83;;;40.40;43.70;;;;;;5049559;28;20448;-80
2023/07/09 09:34:28;;;;;;;15.50;14.90;;;40.10;43.30;;;;;;5047623;28;20444;-81
2023/07/09 09:36:55;;;;;;;15.10;14.53;;;40.30;43.10;;;;;;5044393;28;20927;-81
2023/07/09 09:39:24;;;;;;;15.00;14.40;;;40.90;42.40;;;;;;5041049;28;20798;-82
2023/07/09 09:41:54;;;;;;;14.63;14.03;;;40.40;43.60;;;;;;5043351;28;20448;-81
2023/07/09 09:44:25;;;;;;;16.07;15.30;;;40.80;42.70;;;;;;5043337;28;20716;-80
2023/07/09 09:46:52;;;;;;;16.23;15.07;;;40.30;43.10;;;;;;5042793;28;20471;-81
2023/07/09 09:49:20;;;;;;;15.00;14.30;;;40.50;43.40;;;;;;5040645;28;20480;-80
2023/07/09 09:51:48;;;;;;;16.67;15.97;;;40.50;42.30;;;;;;5048865;28;20465;-80
2023/07/09 09:54:19;;;;;;;15.43;14.83;;;40.70;42.20;;;;;;5044880;28;20444;-80
2023/07/09 09:56:48;;;;;;;16.40;15.70;;;40.50;40.10;;;;;;5043103;28;20439;-82
2023/07/09 09:59:19;;;;;;;15.60;15.00;;;40.20;40.80;;;;;;5041349;28;20442;-81
2023/07/09 10:01:46;;;;;;;15.40;14.80;;;40.60;40.60;;;;;;5043692;28;20440;-80
2023/07/09 10:04:19;;;;;;;16.30;15.70;;;40.50;40.10;;;;;;5048883;28;20475;-80
2023/07/09 10:06:51;;;;;;;16.60;16.00;;;41.10;39.40;;;;;;5051000;28;20483;-81
2023/07/09 10:09:27;;;;;;;16.80;16.10;;;40.80;39.20;;;;;;5051303;28;20494;-80
2023/07/09 10:12:02;;;;;;;15.67;15.07;;;41.00;39.40;;;;;;5050852;28;20443;-81
2023/07/09 10:14:37;;;;;;;15.67;15.07;;;41.20;37.80;;;;;;5050888;28;20455;-81
2023/07/09 10:17:15;;;;;;;15.00;14.40;;;40.50;38.10;;;;;;5047713;28;20948;-81
2023/07/09 10:19:50;;;;;;;16.40;15.70;;;40.80;38.30;;;;;;5050524;28;20956;-81
2023/07/09 10:22:28;;;;;;;14.83;14.33;;;40.60;38.00;;;;;;5051150;28;20459;-79
2023/07/09 10:25:02;;;;;;;16.23;15.63;;;40.40;37.50;;;;;;5051170;28;20451;-81
2023/07/09 10:27:48;;;;;;;16.50;15.90;;;40.10;37.10;;;;;;5042462;28;20478;-82
2023/07/09 10:30:25;;;;;;;16.57;15.17;;;40.70;37.40;;;;;;5047507;28;20463;-81
2023/07/09 10:33:04;;;;;;;16.03;15.17;;;41.30;36.40;;;;;;5050987;28;20459;-82
2023/07/09 10:35:37;;;;;;;16.50;15.70;;;42.60;35.00;;;;;;5051417;28;20467;-81
2023/07/09 10:38:22;;;;;;;16.03;15.33;;;42.40;33.90;;;;;;5051499;28;20463;-81
2023/07/09 10:40:53;;;;;;;16.07;15.37;;;40.90;35.40;;;;;;5050616;28;20454;-81
2023/07/09 10:43:23;;;;;;;15.00;14.30;;;40.10;35.80;;;;;;5050346;28;20523;-80
2023/07/09 10:45:55;;;;;;;17.47;16.70;;;39.90;35.70;;;;;;5050221;28;20459;-81
2023/07/09 10:48:34;;;;;;;16.03;15.43;;;40.50;35.30;;;;;;5049852;28;20511;-80
2023/07/09 10:51:02;;;;;;;17.30;16.40;;;40.40;35.60;;;;;;5048273;28;20459;-80
2023/07/09 10:53:37;;;;;;;16.70;16.07;;;41.10;34.70;;;;;;5049598;28;21012;-80
2023/07/09 10:56:11;;;;;;;16.13;15.47;;;42.00;33.10;;;;;;5050526;28;20482;-80
2023/07/09 10:58:45;;;;;;;16.80;16.20;;;43.20;31.10;;;;;;5051060;28;20446;-80
2023/07/09 11:01:14;;;;;;;17.23;16.50;;;43.70;30.90;;;;;;5050702;28;20220;-82
2023/07/09 11:03:45;;;;;;;16.77;16.17;;;43.50;31.60;;;;;;5049218;28;20535;-80
2023/07/09 11:06:18;;;;;;;18.57;17.87;;;43.90;30.80;;;;;;5050203;28;20223;-81
2023/07/09 11:08:49;;;;;;;19.38;18.52;;;45.00;30.20;;;;;;5050211;28;20217;-82
2023/07/09 11:11:26;;;;;;;18.52;17.83;;;45.90;29.10;;;;;;5050393;28;20197;-82
2023/07/09 11:14:00;;;;;;;18.05;17.45;;;46.00;28.70;;;;;;5043122;28;20208;-82
2023/07/09 11:16:29;;;;;;;17.30;16.60;;;45.90;28.40;;;;;;5051093;28;20287;-81
2023/07/09 11:18:59;;;;;;;16.60;16.00;;;44.00;29.70;;;;;;5052899;28;20204;-82
2023/07/09 11:21:26;;;;;;;16.77;15.90;;;41.70;31.60;;;;;;5055066;28;20705;-81
2023/07/09 11:23:55;;;;;;;18.23;17.33;;;41.30;31.80;;;;;;5055149;28;20455;-82
2023/07/09 11:26:25;;;;;;;16.50;15.87;;;41.70;31.60;;;;;;5054690;28;20817;-81
2023/07/09 11:28:54;;;;;;;16.40;15.63;;;42.30;30.90;;;;;;5054987;28;20483;-81
2023/07/09 11:31:24;;;;;;;16.97;16.17;;;42.00;30.20;;;;;;5055877;28;20447;-81
2023/07/09 11:34:00;;;;;;;16.20;15.60;;;41.50;30.60;;;;;;5055930;28;20844;-80
2023/07/09 11:36:28;;;;;;;16.90;16.20;;;41.60;30.80;;;;;;5054225;28;20470;-81
2023/07/09 11:38:57;;;;;;;15.97;15.30;;;41.40;30.60;;;;;;5054575;28;20462;-81
2023/07/09 11:41:29;;;;;;;18.40;17.60;;;41.40;30.00;;;;;;5055159;28;20451;-83
2023/07/09 11:44:06;;;;;;;17.07;16.40;;;42.10;29.40;;;;;;5054140;28;20444;-81
2023/07/09 11:46:35;;;;;;;17.43;16.83;;;42.90;28.70;;;;;;5054344;28;21006;-81
2023/07/09 11:49:03;;;;;;;17.87;17.07;;;44.20;28.20;;;;;;5054270;28;20236;-83
2023/07/09 11:51:37;;;;;;;18.10;17.40;;;44.40;28.30;;;;;;5054310;28;20576;-80
2023/07/09 11:54:06;;;;;;;19.77;18.87;;;44.70;28.00;;;;;;5054912;28;20200;-82
2023/07/09 11:56:34;;;;;;;17.57;16.87;;;44.70;27.80;;;;;;5054150;28;20204;-81
2023/07/09 11:59:00;;;;;;;18.43;17.63;;;44.50;27.20;;;;;;5053362;28;20201;-81
2023/07/09 12:01:33;;;;;;;16.67;15.97;;;44.00;26.80;;;;;;5050601;28;20197;-81
2023/07/09 12:03:59;;;;;;;18.70;17.97;;;44.00;27.30;;;;;;5053271;28;20212;-82
2023/07/09 12:06:29;;;;;;;18.70;17.90;;;44.20;27.60;;;;;;5053427;28;20212;-80
2023/07/09 12:08:56;;;;;;;18.15;17.35;;;44.60;27.50;;;;;;5052576;28;20236;-80
2023/07/09 12:11:26;;;;;;;18.60;17.85;;;45.10;26.90;;;;;;5053304;28;20215;-81
2023/07/09 12:13:54;;;;;;;19.13;18.13;;;45.40;26.40;;;;;;5052508;28;20563;-80
2023/07/09 12:16:22;;;;;;;18.77;17.98;;;46.00;25.40;;;;;;5045864;28;20201;-81
2023/07/09 12:18:49;;;;;;;19.85;18.85;;;46.90;38.50;;;;;;5053347;28;20206;-78
2023/07/09 12:21:16;;;;;;;18.23;17.27;;;45.40;37.70;;;;;;5051921;28;20225;-80
2023/07/09 12:23:42;;;;;;;17.30;16.40;;;42.80;38.80;;;;;;5041468;28;20194;-79
2023/07/09 12:26:14;;;;;;;17.80;17.07;;;41.90;39.50;;;;;;5050984;28;20945;-80
2023/07/09 12:28:42;;;;;;;16.53;15.73;;;40.30;41.30;;;;;;5045325;28;20481;-79
2023/07/09 12:31:14;;;;;;;18.80;17.90;;;39.80;41.60;;;;;;5041757;28;20450;-80
2023/07/09 12:33:48;;;;;;;17.97;17.17;;;40.30;41.50;;;;;;5043562;28;20439;-80
2023/07/09 12:36:17;;;;;;;17.13;16.23;;;41.10;39.80;;;;;;5042872;28;20460;-81